sensor_id;sensor_type;location;lat;lon;timestamp;P1;durP1;ratioP1;P2;durP2;ratioP2
55368;SDS011;41247;49.736;8.752;2022-08-21T00:01:50;13.27;;;6.10;;
55368;SDS011;41247;49.736;8.752;2022-08-21T00:05:35;11.65;;;5.88;;
55368;SDS011;41247;49.736;8.752;2022-08-21T00:09:19;10.52;;;6.85;;
55368;SDS011;41247;49.736;8.752;2022-08-21T00:13:01;13.43;;;6.20;;
55368;SDS011;41247;49.736;8.752;2022-08-21T00:20:24;9.18;;;6.13;;
55368;SDS011;41247;49.736;8.752;2022-08-21T00:24:05;14.32;;;6.78;;
55368;SDS011;41247;49.736;8.752;2022-08-21T00:27:46;12.32;;;6.10;;
55368;SDS011;41247;49.736;8.752;2022-08-21T00:31:26;11.05;;;6.20;;
55368;SDS011;41247;49.736;8.752;2022-08-21T00:35:08;12.80;;;6.75;;
55368;SDS011;41247;49.736;8.752;2022-08-21T00:38:54;12.10;;;6.75;;
55368;SDS011;41247;49.736;8.752;2022-08-21T00:42:36;8.27;;;6.20;;
55368;SDS011;41247;49.736;8.752;2022-08-21T00:46:17;12.43;;;6.78;;
55368;SDS011;41247;49.736;8.752;2022-08-21T00:49:57;12.13;;;7.43;;
55368;SDS011;41247;49.736;8.752;2022-08-21T00:53:39;11.38;;;6.78;;
55368;SDS011;41247;49.736;8.752;2022-08-21T00:57:28;12.07;;;7.35;;
55368;SDS011;41247;49.736;8.752;2022-08-21T01:01:13;19.50;;;8.18;;
55368;SDS011;41247;49.736;8.752;2022-08-21T01:04:54;11.38;;;6.90;;
55368;SDS011;41247;49.736;8.752;2022-08-21T01:08:34;10.90;;;8.10;;
55368;SDS011;41247;49.736;8.752;2022-08-21T01:12:15;13.27;;;7.38;;
55368;SDS011;41247;49.736;8.752;2022-08-21T01:15:57;12.60;;;7.07;;
55368;SDS011;41247;49.736;8.752;2022-08-21T01:19:39;13.27;;;7.93;;
55368;SDS011;41247;49.736;8.752;2022-08-21T01:23:20;12.65;;;7.78;;
55368;SDS011;41247;49.736;8.752;2022-08-21T01:27:01;10.50;;;7.72;;
55368;SDS011;41247;49.736;8.752;2022-08-21T01:30:42;13.45;;;7.22;;
55368;SDS011;41247;49.736;8.752;2022-08-21T01:34:23;12.32;;;7.15;;
55368;SDS011;41247;49.736;8.752;2022-08-21T01:38:04;15.48;;;7.70;;
55368;SDS011;41247;49.736;8.752;2022-08-21T01:41:44;14.48;;;8.40;;
55368;SDS011;41247;49.736;8.752;2022-08-21T01:45:25;16.10;;;8.38;;
55368;SDS011;41247;49.736;8.752;2022-08-21T01:49:06;15.65;;;8.27;;
55368;SDS011;41247;49.736;8.752;2022-08-21T01:52:47;13.27;;;7.85;;
55368;SDS011;41247;49.736;8.752;2022-08-21T01:56:31;10.45;;;7.32;;
55368;SDS011;41247;49.736;8.752;2022-08-21T02:00:21;10.15;;;7.50;;
55368;SDS011;41247;49.736;8.752;2022-08-21T02:04:03;11.00;;;7.15;;
55368;SDS011;41247;49.736;8.752;2022-08-21T02:07:45;13.38;;;8.75;;
55368;SDS011;41247;49.736;8.752;2022-08-21T02:11:30;14.18;;;8.05;;
55368;SDS011;41247;49.736;8.752;2022-08-21T02:15:12;12.73;;;8.40;;
55368;SDS011;41247;49.736;8.752;2022-08-21T02:18:53;13.20;;;8.98;;
55368;SDS011;41247;49.736;8.752;2022-08-21T02:22:34;14.88;;;8.80;;
55368;SDS011;41247;49.736;8.752;2022-08-21T02:26:15;15.93;;;8.63;;
55368;SDS011;41247;49.736;8.752;2022-08-21T02:29:56;15.38;;;8.82;;
55368;SDS011;41247;49.736;8.752;2022-08-21T02:33:37;13.48;;;8.63;;
55368;SDS011;41247;49.736;8.752;2022-08-21T02:37:18;14.63;;;9.00;;
55368;SDS011;41247;49.736;8.752;2022-08-21T02:40:59;18.17;;;9.65;;
55368;SDS011;41247;49.736;8.752;2022-08-21T02:44:41;16.25;;;8.98;;
55368;SDS011;41247;49.736;8.752;2022-08-21T02:48:23;17.65;;;10.07;;
55368;SDS011;41247;49.736;8.752;2022-08-21T02:52:07;12.77;;;9.43;;
55368;SDS011;41247;49.736;8.752;2022-08-21T02:55:49;14.63;;;9.07;;
55368;SDS011;41247;49.736;8.752;2022-08-21T02:59:31;16.13;;;9.05;;
55368;SDS011;41247;49.736;8.752;2022-08-21T03:03:12;16.30;;;10.57;;
55368;SDS011;41247;49.736;8.752;2022-08-21T03:06:53;14.98;;;10.20;;
55368;SDS011;41247;49.736;8.752;2022-08-21T03:10:36;14.75;;;10.65;;
55368;SDS011;41247;49.736;8.752;2022-08-21T03:14:25;14.55;;;10.65;;
55368;SDS011;41247;49.736;8.752;2022-08-21T03:18:05;14.75;;;9.73;;
55368;SDS011;41247;49.736;8.752;2022-08-21T03:21:47;16.27;;;10.38;;
55368;SDS011;41247;49.736;8.752;2022-08-21T03:25:28;14.65;;;9.65;;
55368;SDS011;41247;49.736;8.752;2022-08-21T03:29:10;18.98;;;9.43;;
55368;SDS011;41247;49.736;8.752;2022-08-21T03:32:51;19.08;;;10.05;;
55368;SDS011;41247;49.736;8.752;2022-08-21T03:36:32;14.60;;;9.65;;
55368;SDS011;41247;49.736;8.752;2022-08-21T03:40:13;19.90;;;9.90;;
55368;SDS011;41247;49.736;8.752;2022-08-21T03:43:56;14.68;;;9.07;;
55368;SDS011;41247;49.736;8.752;2022-08-21T03:47:36;17.63;;;9.27;;
55368;SDS011;41247;49.736;8.752;2022-08-21T03:51:17;14.60;;;8.70;;
55368;SDS011;41247;49.736;8.752;2022-08-21T03:54:58;12.82;;;8.57;;
55368;SDS011;41247;49.736;8.752;2022-08-21T03:58:39;14.13;;;9.18;;
55368;SDS011;41247;49.736;8.752;2022-08-21T04:02:19;17.15;;;8.57;;
55368;SDS011;41247;49.736;8.752;2022-08-21T04:06:01;13.43;;;8.57;;
55368;SDS011;41247;49.736;8.752;2022-08-21T04:09:42;15.15;;;9.60;;
55368;SDS011;41247;49.736;8.752;2022-08-21T04:13:23;12.55;;;8.68;;
55368;SDS011;41247;49.736;8.752;2022-08-21T04:17:05;13.43;;;9.25;;
55368;SDS011;41247;49.736;8.752;2022-08-21T04:20:46;14.10;;;9.13;;
55368;SDS011;41247;49.736;8.752;2022-08-21T04:24:30;14.77;;;8.90;;
55368;SDS011;41247;49.736;8.752;2022-08-21T04:28:10;15.40;;;9.15;;
55368;SDS011;41247;49.736;8.752;2022-08-21T04:31:51;18.25;;;9.85;;
55368;SDS011;41247;49.736;8.752;2022-08-21T04:35:31;13.60;;;8.82;;
55368;SDS011;41247;49.736;8.752;2022-08-21T04:39:12;14.55;;;9.02;;
55368;SDS011;41247;49.736;8.752;2022-08-21T04:42:55;19.30;;;9.43;;
55368;SDS011;41247;49.736;8.752;2022-08-21T04:46:41;18.10;;;10.30;;
55368;SDS011;41247;49.736;8.752;2022-08-21T04:50:22;16.15;;;8.95;;
55368;SDS011;41247;49.736;8.752;2022-08-21T04:54:15;16.63;;;9.35;;
55368;SDS011;41247;49.736;8.752;2022-08-21T04:57:59;18.40;;;9.73;;
55368;SDS011;41247;49.736;8.752;2022-08-21T05:01:40;14.48;;;8.85;;
55368;SDS011;41247;49.736;8.752;2022-08-21T05:05:22;14.93;;;8.20;;
55368;SDS011;41247;49.736;8.752;2022-08-21T05:09:04;15.50;;;8.50;;
55368;SDS011;41247;49.736;8.752;2022-08-21T05:12:45;23.45;;;9.00;;
55368;SDS011;41247;49.736;8.752;2022-08-21T05:16:26;12.68;;;8.50;;
55368;SDS011;41247;49.736;8.752;2022-08-21T05:20:08;14.20;;;8.30;;
55368;SDS011;41247;49.736;8.752;2022-08-21T05:23:50;19.40;;;8.68;;
55368;SDS011;41247;49.736;8.752;2022-08-21T05:27:31;13.88;;;8.05;;
55368;SDS011;41247;49.736;8.752;2022-08-21T05:31:11;14.23;;;8.13;;
55368;SDS011;41247;49.736;8.752;2022-08-21T05:34:52;17.98;;;8.52;;
55368;SDS011;41247;49.736;8.752;2022-08-21T05:38:33;13.60;;;8.27;;
55368;SDS011;41247;49.736;8.752;2022-08-21T05:42:13;16.45;;;7.93;;
55368;SDS011;41247;49.736;8.752;2022-08-21T05:45:54;12.20;;;7.53;;
55368;SDS011;41247;49.736;8.752;2022-08-21T05:49:35;16.10;;;8.40;;
55368;SDS011;41247;49.736;8.752;2022-08-21T05:53:17;14.77;;;8.07;;
55368;SDS011;41247;49.736;8.752;2022-08-21T05:56:59;15.27;;;8.75;;
55368;SDS011;41247;49.736;8.752;2022-08-21T06:00:40;15.38;;;7.95;;
55368;SDS011;41247;49.736;8.752;2022-08-21T06:04:20;14.52;;;8.02;;
55368;SDS011;41247;49.736;8.752;2022-08-21T06:08:01;13.75;;;7.93;;
55368;SDS011;41247;49.736;8.752;2022-08-21T06:11:42;13.35;;;7.78;;
55368;SDS011;41247;49.736;8.752;2022-08-21T06:15:23;11.55;;;7.53;;
55368;SDS011;41247;49.736;8.752;2022-08-21T06:19:03;13.68;;;8.23;;
55368;SDS011;41247;49.736;8.752;2022-08-21T06:22:44;11.38;;;7.85;;
55368;SDS011;41247;49.736;8.752;2022-08-21T06:26:25;15.75;;;8.52;;
55368;SDS011;41247;49.736;8.752;2022-08-21T06:30:06;14.07;;;8.70;;
55368;SDS011;41247;49.736;8.752;2022-08-21T06:33:47;14.38;;;9.45;;
55368;SDS011;41247;49.736;8.752;2022-08-21T06:37:28;14.48;;;9.00;;
55368;SDS011;41247;49.736;8.752;2022-08-21T06:41:08;14.20;;;9.15;;
55368;SDS011;41247;49.736;8.752;2022-08-21T06:44:49;13.38;;;9.05;;
55368;SDS011;41247;49.736;8.752;2022-08-21T06:48:30;14.43;;;8.57;;
55368;SDS011;41247;49.736;8.752;2022-08-21T06:52:11;14.80;;;9.27;;
55368;SDS011;41247;49.736;8.752;2022-08-21T06:55:53;16.77;;;10.10;;
55368;SDS011;41247;49.736;8.752;2022-08-21T06:59:33;15.60;;;9.32;;
55368;SDS011;41247;49.736;8.752;2022-08-21T07:03:21;12.82;;;8.48;;
55368;SDS011;41247;49.736;8.752;2022-08-21T07:07:14;14.10;;;8.77;;
55368;SDS011;41247;49.736;8.752;2022-08-21T07:10:56;11.25;;;7.43;;
55368;SDS011;41247;49.736;8.752;2022-08-21T07:18:19;11.80;;;7.63;;
55368;SDS011;41247;49.736;8.752;2022-08-21T07:22:00;15.23;;;8.55;;
55368;SDS011;41247;49.736;8.752;2022-08-21T07:25:43;10.18;;;7.25;;
55368;SDS011;41247;49.736;8.752;2022-08-21T07:29:24;15.60;;;7.60;;
55368;SDS011;41247;49.736;8.752;2022-08-21T07:33:04;12.43;;;8.07;;
55368;SDS011;41247;49.736;8.752;2022-08-21T07:36:45;11.43;;;6.82;;
55368;SDS011;41247;49.736;8.752;2022-08-21T07:40:25;14.70;;;8.02;;
55368;SDS011;41247;49.736;8.752;2022-08-21T07:44:06;15.10;;;7.85;;
55368;SDS011;41247;49.736;8.752;2022-08-21T07:47:47;12.02;;;7.65;;
55368;SDS011;41247;49.736;8.752;2022-08-21T07:51:28;13.90;;;7.70;;
55368;SDS011;41247;49.736;8.752;2022-08-21T07:55:10;11.38;;;6.90;;
55368;SDS011;41247;49.736;8.752;2022-08-21T07:58:54;12.90;;;7.55;;
55368;SDS011;41247;49.736;8.752;2022-08-21T08:02:35;9.55;;;6.68;;
55368;SDS011;41247;49.736;8.752;2022-08-21T08:06:16;9.50;;;6.00;;
55368;SDS011;41247;49.736;8.752;2022-08-21T08:09:57;10.43;;;5.75;;
55368;SDS011;41247;49.736;8.752;2022-08-21T08:13:39;12.75;;;8.27;;
55368;SDS011;41247;49.736;8.752;2022-08-21T08:17:21;12.80;;;7.95;;
55368;SDS011;41247;49.736;8.752;2022-08-21T08:21:02;13.02;;;7.15;;
55368;SDS011;41247;49.736;8.752;2022-08-21T08:24:43;14.98;;;9.18;;
55368;SDS011;41247;49.736;8.752;2022-08-21T08:28:25;11.10;;;8.32;;
55368;SDS011;41247;49.736;8.752;2022-08-21T08:32:05;9.50;;;5.88;;
55368;SDS011;41247;49.736;8.752;2022-08-21T08:35:48;11.18;;;5.35;;
55368;SDS011;41247;49.736;8.752;2022-08-21T08:39:31;10.02;;;5.53;;
55368;SDS011;41247;49.736;8.752;2022-08-21T08:43:12;17.13;;;4.75;;
55368;SDS011;41247;49.736;8.752;2022-08-21T08:46:53;9.60;;;4.20;;
55368;SDS011;41247;49.736;8.752;2022-08-21T08:50:55;9.20;;;4.22;;
55368;SDS011;41247;49.736;8.752;2022-08-21T08:54:38;10.90;;;3.88;;
55368;SDS011;41247;49.736;8.752;2022-08-21T08:58:34;9.65;;;3.60;;
55368;SDS011;41247;49.736;8.752;2022-08-21T09:02:20;10.88;;;5.38;;
55368;SDS011;41247;49.736;8.752;2022-08-21T09:06:03;9.10;;;4.72;;
55368;SDS011;41247;49.736;8.752;2022-08-21T09:14:09;9.40;;;4.82;;
55368;SDS011;41247;49.736;8.752;2022-08-21T09:22:14;7.43;;;4.20;;
55368;SDS011;41247;49.736;8.752;2022-08-21T09:26:36;13.13;;;4.23;;
55368;SDS011;41247;49.736;8.752;2022-08-21T09:30:32;10.95;;;4.10;;
55368;SDS011;41247;49.736;8.752;2022-08-21T09:34:23;9.07;;;4.00;;
55368;SDS011;41247;49.736;8.752;2022-08-21T09:38:10;7.55;;;3.45;;
55368;SDS011;41247;49.736;8.752;2022-08-21T09:42:05;8.15;;;3.80;;
55368;SDS011;41247;49.736;8.752;2022-08-21T09:45:49;6.20;;;3.47;;
55368;SDS011;41247;49.736;8.752;2022-08-21T09:49:42;8.40;;;3.63;;
55368;SDS011;41247;49.736;8.752;2022-08-21T09:53:25;6.32;;;3.72;;
55368;SDS011;41247;49.736;8.752;2022-08-21T10:00:57;7.80;;;3.30;;
55368;SDS011;41247;49.736;8.752;2022-08-21T10:04:40;7.90;;;3.10;;
55368;SDS011;41247;49.736;8.752;2022-08-21T10:08:21;7.35;;;3.47;;
55368;SDS011;41247;49.736;8.752;2022-08-21T10:12:19;8.38;;;3.40;;
55368;SDS011;41247;49.736;8.752;2022-08-21T10:16:15;8.85;;;2.92;;
55368;SDS011;41247;49.736;8.752;2022-08-21T10:20:22;10.02;;;3.45;;
55368;SDS011;41247;49.736;8.752;2022-08-21T10:24:39;5.55;;;2.72;;
55368;SDS011;41247;49.736;8.752;2022-08-21T10:29:02;6.15;;;2.65;;
55368;SDS011;41247;49.736;8.752;2022-08-21T10:33:10;7.25;;;2.97;;
55368;SDS011;41247;49.736;8.752;2022-08-21T10:45:38;7.43;;;2.50;;
55368;SDS011;41247;49.736;8.752;2022-08-21T10:50:10;6.53;;;2.55;;
55368;SDS011;41247;49.736;8.752;2022-08-21T10:58:36;8.35;;;2.20;;
55368;SDS011;41247;49.736;8.752;2022-08-21T11:02:40;6.47;;;2.78;;
55368;SDS011;41247;49.736;8.752;2022-08-21T11:06:27;7.40;;;2.63;;
55368;SDS011;41247;49.736;8.752;2022-08-21T11:10:23;5.10;;;1.83;;
55368;SDS011;41247;49.736;8.752;2022-08-21T11:14:25;5.55;;;2.30;;
55368;SDS011;41247;49.736;8.752;2022-08-21T11:18:34;7.80;;;2.80;;
55368;SDS011;41247;49.736;8.752;2022-08-21T11:22:24;8.43;;;2.70;;
55368;SDS011;41247;49.736;8.752;2022-08-21T11:39:20;5.47;;;2.97;;
55368;SDS011;41247;49.736;8.752;2022-08-21T11:43:12;4.50;;;2.75;;
55368;SDS011;41247;49.736;8.752;2022-08-21T11:50:55;7.90;;;3.10;;
55368;SDS011;41247;49.736;8.752;2022-08-21T11:54:58;8.30;;;2.60;;
55368;SDS011;41247;49.736;8.752;2022-08-21T11:58:44;4.87;;;2.40;;
55368;SDS011;41247;49.736;8.752;2022-08-21T12:02:42;5.47;;;2.28;;
55368;SDS011;41247;49.736;8.752;2022-08-21T12:06:31;4.60;;;2.40;;
55368;SDS011;41247;49.736;8.752;2022-08-21T12:10:19;8.10;;;2.70;;
55368;SDS011;41247;49.736;8.752;2022-08-21T12:14:14;7.03;;;2.75;;
55368;SDS011;41247;49.736;8.752;2022-08-21T12:18:18;8.15;;;2.60;;
55368;SDS011;41247;49.736;8.752;2022-08-21T12:22:11;7.15;;;2.50;;
55368;SDS011;41247;49.736;8.752;2022-08-21T12:26:09;7.90;;;2.65;;
55368;SDS011;41247;49.736;8.752;2022-08-21T12:30:05;8.25;;;2.42;;
55368;SDS011;41247;49.736;8.752;2022-08-21T12:34:07;6.20;;;2.42;;
55368;SDS011;41247;49.736;8.752;2022-08-21T12:37:52;7.63;;;3.00;;
55368;SDS011;41247;49.736;8.752;2022-08-21T12:45:40;7.93;;;2.78;;
55368;SDS011;41247;49.736;8.752;2022-08-21T12:49:36;5.32;;;2.35;;
55368;SDS011;41247;49.736;8.752;2022-08-21T12:57:29;6.82;;;3.03;;
55368;SDS011;41247;49.736;8.752;2022-08-21T13:05:15;6.00;;;2.80;;
55368;SDS011;41247;49.736;8.752;2022-08-21T13:09:08;5.90;;;2.88;;
55368;SDS011;41247;49.736;8.752;2022-08-21T13:12:54;5.20;;;2.65;;
55368;SDS011;41247;49.736;8.752;2022-08-21T13:16:38;4.18;;;2.40;;
55368;SDS011;41247;49.736;8.752;2022-08-21T13:20:22;5.80;;;2.33;;
55368;SDS011;41247;49.736;8.752;2022-08-21T13:32:13;7.38;;;2.50;;
55368;SDS011;41247;49.736;8.752;2022-08-21T13:39:39;4.25;;;2.20;;
55368;SDS011;41247;49.736;8.752;2022-08-21T13:43:21;5.78;;;2.50;;
55368;SDS011;41247;49.736;8.752;2022-08-21T13:47:12;6.28;;;2.22;;
55368;SDS011;41247;49.736;8.752;2022-08-21T13:50:55;6.13;;;2.00;;
55368;SDS011;41247;49.736;8.752;2022-08-21T13:54:37;8.18;;;2.53;;
55368;SDS011;41247;49.736;8.752;2022-08-21T13:58:27;3.25;;;1.90;;
55368;SDS011;41247;49.736;8.752;2022-08-21T14:02:18;6.85;;;2.28;;
55368;SDS011;41247;49.736;8.752;2022-08-21T14:06:10;3.80;;;2.00;;
55368;SDS011;41247;49.736;8.752;2022-08-21T14:10:00;6.50;;;2.53;;
55368;SDS011;41247;49.736;8.752;2022-08-21T14:13:55;6.85;;;1.95;;
55368;SDS011;41247;49.736;8.752;2022-08-21T14:17:38;4.68;;;1.83;;
55368;SDS011;41247;49.736;8.752;2022-08-21T14:21:24;5.22;;;1.90;;
55368;SDS011;41247;49.736;8.752;2022-08-21T14:29:04;5.65;;;2.40;;
55368;SDS011;41247;49.736;8.752;2022-08-21T14:32:48;5.88;;;2.10;;
55368;SDS011;41247;49.736;8.752;2022-08-21T14:36:29;4.43;;;1.63;;
55368;SDS011;41247;49.736;8.752;2022-08-21T14:40:10;7.95;;;2.00;;
55368;SDS011;41247;49.736;8.752;2022-08-21T14:43:51;4.82;;;1.80;;
55368;SDS011;41247;49.736;8.752;2022-08-21T14:47:33;4.40;;;2.13;;
55368;SDS011;41247;49.736;8.752;2022-08-21T14:51:14;3.30;;;2.10;;
55368;SDS011;41247;49.736;8.752;2022-08-21T14:54:55;5.03;;;1.98;;
55368;SDS011;41247;49.736;8.752;2022-08-21T14:58:37;5.07;;;1.65;;
55368;SDS011;41247;49.736;8.752;2022-08-21T15:02:21;4.13;;;1.92;;
55368;SDS011;41247;49.736;8.752;2022-08-21T15:06:03;6.67;;;1.87;;
55368;SDS011;41247;49.736;8.752;2022-08-21T15:09:45;5.28;;;2.17;;
55368;SDS011;41247;49.736;8.752;2022-08-21T15:13:25;7.03;;;1.75;;
55368;SDS011;41247;49.736;8.752;2022-08-21T15:17:09;4.40;;;1.45;;
55368;SDS011;41247;49.736;8.752;2022-08-21T15:20:50;5.63;;;1.60;;
55368;SDS011;41247;49.736;8.752;2022-08-21T15:24:31;3.35;;;1.60;;
55368;SDS011;41247;49.736;8.752;2022-08-21T15:28:13;5.90;;;1.80;;
55368;SDS011;41247;49.736;8.752;2022-08-21T15:31:55;3.70;;;1.90;;
55368;SDS011;41247;49.736;8.752;2022-08-21T15:35:40;5.82;;;1.80;;
55368;SDS011;41247;49.736;8.752;2022-08-21T15:39:21;4.80;;;2.10;;
55368;SDS011;41247;49.736;8.752;2022-08-21T15:43:03;6.72;;;2.30;;
55368;SDS011;41247;49.736;8.752;2022-08-21T15:46:45;5.38;;;2.20;;
55368;SDS011;41247;49.736;8.752;2022-08-21T15:50:25;3.70;;;1.95;;
55368;SDS011;41247;49.736;8.752;2022-08-21T15:54:08;6.18;;;2.05;;
55368;SDS011;41247;49.736;8.752;2022-08-21T15:57:49;5.13;;;1.80;;
55368;SDS011;41247;49.736;8.752;2022-08-21T16:01:32;6.63;;;2.03;;
55368;SDS011;41247;49.736;8.752;2022-08-21T16:05:15;6.35;;;2.00;;
55368;SDS011;41247;49.736;8.752;2022-08-21T16:08:56;8.35;;;2.10;;
55368;SDS011;41247;49.736;8.752;2022-08-21T16:12:44;5.38;;;1.88;;
55368;SDS011;41247;49.736;8.752;2022-08-21T16:16:29;3.83;;;2.00;;
55368;SDS011;41247;49.736;8.752;2022-08-21T16:20:14;4.90;;;1.92;;
55368;SDS011;41247;49.736;8.752;2022-08-21T16:24:02;5.45;;;2.00;;
55368;SDS011;41247;49.736;8.752;2022-08-21T16:27:48;5.60;;;1.98;;
55368;SDS011;41247;49.736;8.752;2022-08-21T16:31:37;4.38;;;2.10;;
55368;SDS011;41247;49.736;8.752;2022-08-21T16:35:19;6.22;;;1.83;;
55368;SDS011;41247;49.736;8.752;2022-08-21T16:39:02;4.45;;;2.05;;
55368;SDS011;41247;49.736;8.752;2022-08-21T16:42:43;4.57;;;1.88;;
55368;SDS011;41247;49.736;8.752;2022-08-21T16:46:23;5.10;;;2.00;;
55368;SDS011;41247;49.736;8.752;2022-08-21T16:50:05;5.47;;;2.33;;
55368;SDS011;41247;49.736;8.752;2022-08-21T16:53:47;3.92;;;1.83;;
55368;SDS011;41247;49.736;8.752;2022-08-21T16:57:27;3.20;;;1.80;;
55368;SDS011;41247;49.736;8.752;2022-08-21T17:01:09;6.85;;;2.28;;
55368;SDS011;41247;49.736;8.752;2022-08-21T17:04:52;6.28;;;2.05;;
55368;SDS011;41247;49.736;8.752;2022-08-21T17:08:34;4.30;;;1.92;;
55368;SDS011;41247;49.736;8.752;2022-08-21T17:12:15;9.88;;;2.13;;
55368;SDS011;41247;49.736;8.752;2022-08-21T17:15:56;7.20;;;2.08;;
55368;SDS011;41247;49.736;8.752;2022-08-21T17:19:36;9.40;;;1.88;;
55368;SDS011;41247;49.736;8.752;2022-08-21T17:23:18;5.20;;;2.00;;
55368;SDS011;41247;49.736;8.752;2022-08-21T17:26:59;6.25;;;2.00;;
55368;SDS011;41247;49.736;8.752;2022-08-21T17:30:40;5.80;;;1.85;;
55368;SDS011;41247;49.736;8.752;2022-08-21T17:34:21;6.30;;;2.28;;
55368;SDS011;41247;49.736;8.752;2022-08-21T17:38:03;5.10;;;2.05;;
55368;SDS011;41247;49.736;8.752;2022-08-21T17:41:44;3.40;;;2.08;;
55368;SDS011;41247;49.736;8.752;2022-08-21T17:45:25;11.23;;;2.10;;
55368;SDS011;41247;49.736;8.752;2022-08-21T17:49:06;7.68;;;2.55;;
55368;SDS011;41247;49.736;8.752;2022-08-21T17:52:47;7.53;;;2.50;;
55368;SDS011;41247;49.736;8.752;2022-08-21T17:56:30;5.90;;;2.20;;
55368;SDS011;41247;49.736;8.752;2022-08-21T18:00:15;6.97;;;2.35;;
55368;SDS011;41247;49.736;8.752;2022-08-21T18:03:57;5.55;;;2.03;;
55368;SDS011;41247;49.736;8.752;2022-08-21T18:07:38;5.30;;;2.15;;
55368;SDS011;41247;49.736;8.752;2022-08-21T18:11:20;7.03;;;2.45;;
55368;SDS011;41247;49.736;8.752;2022-08-21T18:15:06;5.05;;;2.25;;
55368;SDS011;41247;49.736;8.752;2022-08-21T18:18:49;5.72;;;2.40;;
55368;SDS011;41247;49.736;8.752;2022-08-21T18:22:29;7.57;;;2.45;;
55368;SDS011;41247;49.736;8.752;2022-08-21T18:26:14;6.55;;;2.33;;
55368;SDS011;41247;49.736;8.752;2022-08-21T18:30:05;7.88;;;2.45;;
55368;SDS011;41247;49.736;8.752;2022-08-21T18:33:46;7.38;;;2.55;;
55368;SDS011;41247;49.736;8.752;2022-08-21T18:37:27;4.32;;;2.20;;
55368;SDS011;41247;49.736;8.752;2022-08-21T18:41:08;7.38;;;2.33;;
55368;SDS011;41247;49.736;8.752;2022-08-21T18:44:49;4.53;;;2.45;;
55368;SDS011;41247;49.736;8.752;2022-08-21T18:48:33;8.07;;;2.55;;
55368;SDS011;41247;49.736;8.752;2022-08-21T18:52:13;3.88;;;2.47;;
55368;SDS011;41247;49.736;8.752;2022-08-21T18:55:54;6.55;;;2.40;;
55368;SDS011;41247;49.736;8.752;2022-08-21T18:59:36;7.25;;;2.75;;
55368;SDS011;41247;49.736;8.752;2022-08-21T19:03:18;7.78;;;2.65;;
55368;SDS011;41247;49.736;8.752;2022-08-21T19:10:42;6.95;;;2.53;;
55368;SDS011;41247;49.736;8.752;2022-08-21T19:14:25;9.00;;;2.75;;
55368;SDS011;41247;49.736;8.752;2022-08-21T19:18:08;5.68;;;2.70;;
55368;SDS011;41247;49.736;8.752;2022-08-21T19:21:52;6.35;;;2.70;;
55368;SDS011;41247;49.736;8.752;2022-08-21T19:25:32;7.15;;;2.90;;
55368;SDS011;41247;49.736;8.752;2022-08-21T19:29:15;5.38;;;2.47;;
55368;SDS011;41247;49.736;8.752;2022-08-21T19:32:57;7.35;;;2.60;;
55368;SDS011;41247;49.736;8.752;2022-08-21T19:36:38;6.70;;;2.78;;
55368;SDS011;41247;49.736;8.752;2022-08-21T19:40:19;7.10;;;2.85;;
55368;SDS011;41247;49.736;8.752;2022-08-21T19:44:01;5.43;;;2.40;;
55368;SDS011;41247;49.736;8.752;2022-08-21T19:47:46;7.35;;;2.50;;
55368;SDS011;41247;49.736;8.752;2022-08-21T19:51:28;6.90;;;2.40;;
55368;SDS011;41247;49.736;8.752;2022-08-21T19:55:09;4.63;;;2.40;;
55368;SDS011;41247;49.736;8.752;2022-08-21T19:58:50;5.43;;;2.50;;
55368;SDS011;41247;49.736;8.752;2022-08-21T20:02:31;3.88;;;2.20;;
55368;SDS011;41247;49.736;8.752;2022-08-21T20:06:12;6.20;;;2.83;;
55368;SDS011;41247;49.736;8.752;2022-08-21T20:09:53;6.03;;;2.58;;
55368;SDS011;41247;49.736;8.752;2022-08-21T20:13:35;4.60;;;2.58;;
55368;SDS011;41247;49.736;8.752;2022-08-21T20:17:16;4.65;;;2.55;;
55368;SDS011;41247;49.736;8.752;2022-08-21T20:20:58;6.60;;;2.60;;
55368;SDS011;41247;49.736;8.752;2022-08-21T20:24:40;7.05;;;2.80;;
55368;SDS011;41247;49.736;8.752;2022-08-21T20:28:20;6.53;;;2.85;;
55368;SDS011;41247;49.736;8.752;2022-08-21T20:32:02;3.63;;;2.42;;
55368;SDS011;41247;49.736;8.752;2022-08-21T20:35:44;6.07;;;2.40;;
55368;SDS011;41247;49.736;8.752;2022-08-21T20:39:25;6.43;;;2.50;;
55368;SDS011;41247;49.736;8.752;2022-08-21T20:43:05;5.20;;;2.60;;
55368;SDS011;41247;49.736;8.752;2022-08-21T20:46:47;5.82;;;2.75;;
55368;SDS011;41247;49.736;8.752;2022-08-21T20:50:28;6.32;;;2.75;;
55368;SDS011;41247;49.736;8.752;2022-08-21T20:54:32;6.10;;;2.63;;
55368;SDS011;41247;49.736;8.752;2022-08-21T20:58:19;6.67;;;2.77;;
55368;SDS011;41247;49.736;8.752;2022-08-21T21:02:28;6.20;;;2.70;;
55368;SDS011;41247;49.736;8.752;2022-08-21T21:06:25;5.68;;;2.83;;
55368;SDS011;41247;49.736;8.752;2022-08-21T21:10:09;7.30;;;2.78;;
55368;SDS011;41247;49.736;8.752;2022-08-21T21:14:02;3.70;;;2.33;;
55368;SDS011;41247;49.736;8.752;2022-08-21T21:17:57;6.82;;;2.83;;
55368;SDS011;41247;49.736;8.752;2022-08-21T21:21:58;6.63;;;2.53;;
55368;SDS011;41247;49.736;8.752;2022-08-21T21:25:52;5.97;;;2.85;;
55368;SDS011;41247;49.736;8.752;2022-08-21T21:34:14;4.25;;;2.30;;
55368;SDS011;41247;49.736;8.752;2022-08-21T21:38:00;4.13;;;2.42;;
55368;SDS011;41247;49.736;8.752;2022-08-21T21:49:50;5.68;;;2.75;;
55368;SDS011;41247;49.736;8.752;2022-08-21T22:14:41;6.75;;;2.90;;
55368;SDS011;41247;49.736;8.752;2022-08-21T22:18:26;6.25;;;2.67;;
55368;SDS011;41247;49.736;8.752;2022-08-21T22:22:16;6.05;;;2.78;;
55368;SDS011;41247;49.736;8.752;2022-08-21T22:26:03;5.55;;;2.50;;
55368;SDS011;41247;49.736;8.752;2022-08-21T22:29:49;5.20;;;2.53;;
55368;SDS011;41247;49.736;8.752;2022-08-21T22:33:36;9.70;;;2.83;;
55368;SDS011;41247;49.736;8.752;2022-08-21T22:37:17;6.50;;;2.70;;
55368;SDS011;41247;49.736;8.752;2022-08-21T22:45:06;5.35;;;2.30;;
55368;SDS011;41247;49.736;8.752;2022-08-21T22:48:52;7.80;;;2.42;;
55368;SDS011;41247;49.736;8.752;2022-08-21T22:52:42;6.20;;;2.78;;
55368;SDS011;41247;49.736;8.752;2022-08-21T22:56:28;5.97;;;2.58;;
55368;SDS011;41247;49.736;8.752;2022-08-21T23:00:15;4.95;;;2.50;;
55368;SDS011;41247;49.736;8.752;2022-08-21T23:04:17;4.38;;;2.67;;
55368;SDS011;41247;49.736;8.752;2022-08-21T23:12:24;4.13;;;2.40;;
55368;SDS011;41247;49.736;8.752;2022-08-21T23:16:13;6.20;;;2.72;;
55368;SDS011;41247;49.736;8.752;2022-08-21T23:20:16;4.68;;;2.45;;
55368;SDS011;41247;49.736;8.752;2022-08-21T23:24:32;4.47;;;2.70;;
55368;SDS011;41247;49.736;8.752;2022-08-21T23:29:10;4.72;;;2.13;;
55368;SDS011;41247;49.736;8.752;2022-08-21T23:37:25;4.90;;;2.20;;
55368;SDS011;41247;49.736;8.752;2022-08-21T23:41:43;6.45;;;2.72;;
55368;SDS011;41247;49.736;8.752;2022-08-21T23:45:36;4.63;;;2.10;;
55368;SDS011;41247;49.736;8.752;2022-08-21T23:50:03;5.07;;;2.20;;
55368;SDS011;41247;49.736;8.752;2022-08-21T23:58:15;5.90;;;2.17;;
